createdAt,value
2022-10-06T00:01:32.756Z,1.63
2022-10-06T00:03:59.401Z,1.40
2022-10-06T00:06:25.987Z,0.90
2022-10-06T00:08:52.641Z,1.60
2022-10-06T00:11:19.251Z,1.52
2022-10-06T00:13:45.894Z,1.33
2022-10-06T00:16:14.627Z,1.40
2022-10-06T00:18:41.287Z,1.60
2022-10-06T00:21:07.864Z,1.33
2022-10-06T00:23:34.659Z,1.65
2022-10-06T00:26:01.250Z,1.50
2022-10-06T00:28:28.408Z,1.10
2022-10-06T00:30:55.456Z,1.42
2022-10-06T00:33:22.203Z,1.20
2022-10-06T00:35:49.067Z,1.67
2022-10-06T00:38:16.474Z,1.90
2022-10-06T00:40:48.630Z,1.67
2022-10-06T00:43:36.835Z,1.73
2022-10-06T00:46:03.472Z,1.42
2022-10-06T00:48:30.447Z,2.00
2022-10-06T00:50:57.643Z,1.92
2022-10-06T00:53:26.032Z,2.22
2022-10-06T00:55:52.612Z,1.40
2022-10-06T00:58:19.209Z,1.60
2022-10-06T01:14:12.967Z,1.55
2022-10-06T01:16:40.901Z,1.60
2022-10-06T01:19:10.515Z,1.60
2022-10-06T01:24:11.435Z,2.25
2022-10-06T01:26:40.891Z,1.45
2022-10-06T01:29:07.505Z,1.40
2022-10-06T01:31:34.233Z,1.38
2022-10-06T01:34:00.939Z,1.58
2022-10-06T01:36:27.657Z,1.30
2022-10-06T01:38:54.281Z,1.70
2022-10-06T01:41:20.930Z,1.90
2022-10-06T01:43:47.569Z,1.42
2022-10-06T01:46:14.262Z,1.92
2022-10-06T01:48:40.917Z,1.73
2022-10-06T01:51:07.551Z,1.48
2022-10-06T01:53:34.215Z,1.40
2022-10-06T01:56:01.183Z,1.63
2022-10-06T01:58:28.023Z,1.27
2022-10-06T02:00:54.939Z,1.45
2022-10-06T02:03:21.684Z,1.73
2022-10-06T02:05:48.291Z,1.35
2022-10-06T02:08:16.154Z,1.15
2022-10-06T02:10:42.841Z,2.30
2022-10-06T02:13:09.451Z,2.05
2022-10-06T02:15:36.096Z,2.08
2022-10-06T02:18:02.830Z,1.70
2022-10-06T02:20:29.589Z,1.30
2022-10-06T02:22:56.209Z,1.33
2022-10-06T02:25:22.942Z,1.63
2022-10-06T02:27:49.544Z,1.92
2022-10-06T02:30:16.345Z,1.45
2022-10-06T02:32:43.166Z,1.60
2022-10-06T02:35:10.126Z,1.10
2022-10-06T02:37:36.785Z,1.88
2022-10-06T02:40:03.826Z,1.80
2022-10-06T02:42:30.690Z,1.40
2022-10-06T02:44:57.319Z,2.22
2022-10-06T02:47:23.958Z,1.70
2022-10-06T02:49:50.602Z,1.73
2022-10-06T02:52:17.271Z,1.80
2022-10-06T02:54:43.887Z,1.30
2022-10-06T02:57:10.587Z,1.30
2022-10-06T02:59:37.249Z,1.65
2022-10-06T03:02:03.995Z,1.92
2022-10-06T03:04:30.904Z,1.45
2022-10-06T03:06:57.589Z,1.75
2022-10-06T03:09:24.514Z,1.02
2022-10-06T03:11:51.180Z,1.88
2022-10-06T03:14:21.669Z,1.92
2022-10-06T03:16:48.830Z,1.50
2022-10-06T03:19:15.456Z,1.98
2022-10-06T03:21:42.603Z,1.92
2022-10-06T03:24:09.677Z,1.67
2022-10-06T03:26:41.100Z,2.15
2022-10-06T03:29:11.317Z,1.08
2022-10-06T03:31:38.852Z,2.20
2022-10-06T03:34:05.735Z,2.13
2022-10-06T03:36:33.110Z,1.83
2022-10-06T03:39:00.028Z,1.85
2022-10-06T03:41:28.034Z,2.05
2022-10-06T03:43:56.061Z,2.03
2022-10-06T03:46:24.028Z,1.75
2022-10-06T03:48:51.327Z,2.47
2022-10-06T03:51:24.240Z,1.60
2022-10-06T03:53:51.900Z,2.45
2022-10-06T03:56:31.956Z,2.05
2022-10-06T03:58:59.971Z,2.15
2022-10-06T04:01:31.303Z,1.98
2022-10-06T04:03:58.682Z,1.60
2022-10-06T04:06:26.106Z,2.28
2022-10-06T04:08:52.829Z,2.05
2022-10-06T04:11:24.063Z,1.98
2022-10-06T04:14:03.941Z,1.70
2022-10-06T04:16:31.933Z,2.45
2022-10-06T04:19:00.531Z,1.70
2022-10-06T04:21:27.623Z,2.72
2022-10-06T04:23:55.045Z,2.17
2022-10-06T04:26:22.473Z,2.45
2022-10-06T04:28:50.363Z,2.78
2022-10-06T04:31:21.753Z,2.20
2022-10-06T04:33:51.112Z,1.90
2022-10-06T04:36:23.736Z,2.10
2022-10-06T04:38:57.831Z,2.45
2022-10-06T04:41:31.999Z,1.75
2022-10-06T04:43:58.907Z,2.05
2022-10-06T04:49:18.955Z,1.98
2022-10-06T04:51:46.334Z,2.60
2022-10-06T04:54:13.031Z,2.33
2022-10-06T04:56:39.683Z,2.20
2022-10-06T04:59:06.324Z,2.50
2022-10-06T05:04:01.530Z,2.08
2022-10-06T05:06:30.181Z,2.65
2022-10-06T05:08:58.492Z,2.67
2022-10-06T05:11:26.145Z,2.03
2022-10-06T05:13:54.545Z,2.13
2022-10-06T05:16:21.558Z,2.13
2022-10-06T05:18:48.323Z,2.22
2022-10-06T05:21:16.523Z,2.22
2022-10-06T05:23:43.565Z,2.38
2022-10-06T05:26:14.746Z,2.17
2022-10-06T05:28:41.602Z,2.10
2022-10-06T05:31:19.106Z,2.92
2022-10-06T05:33:45.870Z,2.53
2022-10-06T05:36:16.949Z,2.50
2022-10-06T05:38:44.127Z,2.47
2022-10-06T05:41:17.929Z,2.35
2022-10-06T05:43:44.794Z,2.40
2022-10-06T05:46:16.314Z,2.40
2022-10-06T05:48:45.534Z,2.75
2022-10-06T05:51:12.194Z,1.95
2022-10-06T05:53:41.568Z,2.63
2022-10-06T05:56:26.288Z,2.38
2022-10-06T05:58:56.947Z,3.17
2022-10-06T06:01:41.246Z,1.83
2022-10-06T06:04:09.959Z,2.35
2022-10-06T06:06:43.135Z,2.42
2022-10-06T06:09:20.159Z,2.00
2022-10-06T06:11:48.340Z,14.27
2022-10-06T06:14:19.162Z,3.00
2022-10-06T06:16:46.088Z,2.03
2022-10-06T06:19:13.427Z,4.05
2022-10-06T06:21:40.141Z,2.90
2022-10-06T06:24:06.900Z,2.70
2022-10-06T06:26:37.055Z,2.08
2022-10-06T06:29:03.966Z,2.65
2022-10-06T06:31:31.785Z,3.03
2022-10-06T06:34:00.823Z,2.58
2022-10-06T06:36:37.607Z,2.25
2022-10-06T06:39:06.531Z,2.42
2022-10-06T06:41:37.229Z,3.47
2022-10-06T06:44:04.570Z,2.40
2022-10-06T06:46:31.695Z,2.60
2022-10-06T06:48:59.605Z,2.55
2022-10-06T06:51:26.517Z,2.85
2022-10-06T06:53:55.501Z,2.55
2022-10-06T06:56:25.017Z,2.85
2022-10-06T06:58:51.644Z,2.97
2022-10-06T07:01:19.301Z,2.88
2022-10-06T07:03:58.959Z,2.25
2022-10-06T07:06:28.143Z,2.28
2022-10-06T07:08:55.844Z,2.50
2022-10-06T07:11:41.660Z,2.83
2022-10-06T07:14:11.521Z,2.30
2022-10-06T07:16:38.289Z,2.40
2022-10-06T07:19:05.135Z,2.42
2022-10-06T07:21:31.754Z,2.85
2022-10-06T07:23:58.687Z,2.53
2022-10-06T07:26:26.135Z,2.05
2022-10-06T07:28:52.817Z,3.22
2022-10-06T07:31:19.606Z,1.80
2022-10-06T07:33:46.357Z,1.98
2022-10-06T07:36:12.943Z,2.88
2022-10-06T07:38:39.657Z,2.75
2022-10-06T07:41:18.961Z,2.85
2022-10-06T07:43:46.702Z,2.83
2022-10-06T07:46:13.514Z,3.03
2022-10-06T07:48:40.465Z,3.03
2022-10-06T07:51:17.770Z,3.03
2022-10-06T07:53:44.562Z,3.03
2022-10-06T07:56:12.123Z,2.53
2022-10-06T07:58:39.026Z,2.90
2022-10-06T08:01:07.102Z,3.42
2022-10-06T08:03:33.858Z,3.40
2022-10-06T08:06:01.785Z,2.97
2022-10-06T08:08:33.059Z,3.40
2022-10-06T08:11:01.566Z,2.72
2022-10-06T08:13:28.553Z,2.80
2022-10-06T08:15:58.545Z,2.75
2022-10-06T08:18:45.443Z,3.05
2022-10-06T08:21:22.613Z,2.42
2022-10-06T08:23:51.158Z,2.50
2022-10-06T08:26:18.920Z,2.22
2022-10-06T08:28:50.155Z,2.35
2022-10-06T08:31:18.377Z,2.50
2022-10-06T08:33:46.497Z,2.58
2022-10-06T08:36:20.117Z,2.10
2022-10-06T08:38:49.887Z,2.03
2022-10-06T08:41:21.819Z,1.83
2022-10-06T08:44:13.492Z,2.20
2022-10-06T08:46:42.709Z,1.92
2022-10-06T08:49:15.836Z,1.90
2022-10-06T08:51:51.530Z,1.83
2022-10-06T08:56:57.938Z,2.13
2022-10-06T08:59:24.834Z,1.83
2022-10-06T09:01:55.238Z,1.67
2022-10-06T09:04:27.652Z,1.38
2022-10-06T09:07:03.280Z,1.80
2022-10-06T09:09:55.191Z,2.30
2022-10-06T09:12:48.274Z,2.08
2022-10-06T09:15:15.197Z,2.20
2022-10-06T09:17:47.595Z,1.58
2022-10-06T09:20:18.227Z,1.45
2022-10-06T09:22:45.580Z,1.58
2022-10-06T09:25:17.364Z,1.75
2022-10-06T09:27:52.224Z,1.67
2022-10-06T09:30:19.503Z,1.77
2022-10-06T09:32:47.851Z,1.70
2022-10-06T09:35:23.254Z,1.50
2022-10-06T09:40:40.532Z,1.60
2022-10-06T09:43:20.511Z,1.30
2022-10-06T09:45:47.928Z,1.52
2022-10-06T09:48:25.370Z,1.60
2022-10-06T09:51:13.257Z,1.45
2022-10-06T09:56:17.629Z,1.33
2022-10-06T09:58:59.927Z,2.08
2022-10-06T10:01:27.772Z,1.40
2022-10-06T10:04:18.721Z,1.52
2022-10-06T10:06:43.696Z,1.73
2022-10-06T10:09:28.558Z,1.92
2022-10-06T10:12:10.263Z,1.45
2022-10-06T10:14:38.248Z,1.40
2022-10-06T10:17:39.271Z,1.42
2022-10-06T10:20:38.274Z,1.65
2022-10-06T10:23:31.710Z,1.27
2022-10-06T10:28:50.173Z,1.33
2022-10-06T10:31:35.281Z,1.13
2022-10-06T10:34:25.208Z,0.90
2022-10-06T10:37:04.178Z,1.13
2022-10-06T10:39:35.957Z,1.13
2022-10-06T10:42:04.499Z,1.20
2022-10-06T10:44:36.493Z,1.00
2022-10-06T10:47:16.727Z,1.05
2022-10-06T10:49:45.581Z,1.17
2022-10-06T10:52:23.122Z,1.63
2022-10-06T10:55:18.830Z,0.80
2022-10-06T10:57:45.677Z,1.02
2022-10-06T11:00:19.223Z,1.20
2022-10-06T11:02:46.292Z,1.63
2022-10-06T11:05:28.922Z,0.90
2022-10-06T11:08:03.980Z,1.10
2022-10-06T11:10:34.092Z,1.08
2022-10-06T11:13:23.180Z,1.17
2022-10-06T11:16:20.879Z,1.10
2022-10-06T11:18:59.646Z,0.85
2022-10-06T11:21:35.264Z,0.93
2022-10-06T11:24:22.428Z,1.00
2022-10-06T11:26:58.008Z,1.20
2022-10-06T11:29:46.366Z,0.90
2022-10-06T11:32:46.465Z,0.98
2022-10-06T11:35:26.311Z,0.82
2022-10-06T11:38:01.832Z,1.30
2022-10-06T11:41:00.837Z,1.13
2022-10-06T11:43:52.247Z,1.40
2022-10-06T11:46:41.347Z,0.90
2022-10-06T11:49:29.208Z,1.23
2022-10-06T11:51:59.586Z,1.10
2022-10-06T11:54:46.763Z,0.80
2022-10-06T11:57:25.125Z,1.10
2022-10-06T12:00:16.829Z,0.95
2022-10-06T12:02:46.820Z,1.10
2022-10-06T12:05:45.877Z,1.02
2022-10-06T12:08:09.115Z,1.08
2022-10-06T12:10:35.840Z,1.20
2022-10-06T12:14:41.117Z,1.10
2022-10-06T12:19:27.606Z,1.35
2022-10-06T12:21:54.491Z,1.27
2022-10-06T12:24:41.680Z,0.90
2022-10-06T12:27:49.038Z,0.90
2022-10-06T12:30:24.488Z,1.10
2022-10-06T12:32:54.866Z,1.42
2022-10-06T12:35:34.638Z,1.05
2022-10-06T12:38:05.207Z,0.90
2022-10-06T12:40:43.005Z,1.00
2022-10-06T12:43:15.689Z,0.85
2022-10-06T12:45:46.113Z,1.27
2022-10-06T12:48:22.260Z,1.17
2022-10-06T12:50:51.656Z,0.98
2022-10-06T12:53:28.106Z,1.10
2022-10-06T12:55:56.626Z,1.10
2022-10-06T12:58:30.599Z,0.90
2022-10-06T13:01:11.384Z,1.30
2022-10-06T13:03:38.479Z,1.10
2022-10-06T13:06:07.833Z,1.10
2022-10-06T13:08:36.061Z,0.93
2022-10-06T13:11:22.576Z,1.00
2022-10-06T13:13:50.836Z,1.38
2022-10-06T13:16:23.131Z,1.02
2022-10-06T13:18:53.565Z,1.33
2022-10-06T13:21:20.467Z,1.00
2022-10-06T13:23:50.171Z,0.80
2022-10-06T13:26:20.195Z,0.80
2022-10-06T13:28:51.550Z,1.33
2022-10-06T13:31:20.893Z,0.85
2022-10-06T13:33:52.784Z,0.73
2022-10-06T13:36:19.649Z,1.00
2022-10-06T13:38:47.229Z,1.40
2022-10-06T13:41:13.869Z,0.98
2022-10-06T13:43:43.455Z,0.90
2022-10-06T13:46:11.143Z,0.98
2022-10-06T13:48:56.093Z,0.90
2022-10-06T13:51:28.668Z,0.80
2022-10-06T13:54:16.554Z,0.70
2022-10-06T13:56:43.331Z,0.93
2022-10-06T13:59:27.663Z,1.05
2022-10-06T14:01:55.795Z,0.77
2022-10-06T14:04:22.847Z,1.00
2022-10-06T14:06:56.487Z,1.05
2022-10-06T14:09:26.425Z,0.90
2022-10-06T14:11:53.936Z,0.90
2022-10-06T14:14:21.424Z,0.82
2022-10-06T14:16:51.839Z,1.10
2022-10-06T14:19:35.874Z,0.65
2022-10-06T14:22:04.149Z,0.70
2022-10-06T14:24:31.024Z,1.33
2022-10-06T14:27:02.249Z,1.15
2022-10-06T14:29:30.927Z,0.90
2022-10-06T14:32:08.055Z,0.82
2022-10-06T14:34:34.680Z,0.75
2022-10-06T14:37:01.415Z,1.17
2022-10-06T14:39:28.079Z,1.10
2022-10-06T14:41:54.729Z,0.88
2022-10-06T14:44:21.493Z,0.90
2022-10-06T14:46:48.843Z,1.08
2022-10-06T14:49:15.899Z,1.10
2022-10-06T14:51:43.539Z,1.10
2022-10-06T14:54:10.321Z,1.20
2022-10-06T14:56:38.539Z,1.10
2022-10-06T14:59:07.422Z,0.80
2022-10-06T15:01:37.598Z,0.70
2022-10-06T15:04:10.548Z,0.75
2022-10-06T15:06:38.497Z,0.95
2022-10-06T15:09:05.750Z,0.75
2022-10-06T15:11:37.829Z,0.82
2022-10-06T15:14:05.813Z,1.08
2022-10-06T15:16:35.432Z,0.60
2022-10-06T15:19:02.314Z,0.98
2022-10-06T15:21:33.008Z,1.00
2022-10-06T15:24:03.884Z,0.88
2022-10-06T15:26:35.631Z,1.25
2022-10-06T15:29:02.937Z,3.53
2022-10-06T15:31:38.783Z,1.60
2022-10-06T15:36:43.451Z,1.13
2022-10-06T15:39:16.571Z,0.95
2022-10-06T15:41:45.054Z,1.00
2022-10-06T15:44:18.055Z,0.85
2022-10-06T15:46:48.406Z,0.88
2022-10-06T15:49:24.263Z,0.80
2022-10-06T15:51:59.680Z,0.57
2022-10-06T15:54:34.965Z,1.23
2022-10-06T15:57:06.488Z,0.90
2022-10-06T15:59:34.352Z,0.55
2022-10-06T16:02:07.587Z,0.75
2022-10-06T16:04:37.905Z,0.80
2022-10-06T16:07:09.105Z,0.93
2022-10-06T16:09:42.040Z,0.63
2022-10-06T16:12:12.184Z,1.02
2022-10-06T16:14:38.827Z,0.70
2022-10-06T16:17:06.398Z,1.05
2022-10-06T16:19:33.235Z,1.15
2022-10-06T16:22:00.527Z,0.95
2022-10-06T16:24:27.225Z,1.00
2022-10-06T16:26:54.063Z,1.08
2022-10-06T16:29:21.424Z,0.93
2022-10-06T16:31:48.248Z,1.00
2022-10-06T16:34:15.200Z,1.05
2022-10-06T16:36:42.155Z,1.00
2022-10-06T16:39:15.184Z,0.93
2022-10-06T16:41:42.035Z,1.25
2022-10-06T16:44:08.831Z,1.30
2022-10-06T16:46:35.726Z,1.20
2022-10-06T16:49:02.713Z,1.10
2022-10-06T16:51:30.909Z,0.90
2022-10-06T16:54:10.630Z,1.50
2022-10-06T16:56:45.175Z,1.00
2022-10-06T16:59:13.472Z,0.70
2022-10-06T17:01:40.179Z,1.10
2022-10-06T17:04:11.544Z,1.00
2022-10-06T17:06:45.812Z,1.67
2022-10-06T17:09:14.381Z,1.38
2022-10-06T17:11:44.083Z,1.20
2022-10-06T17:14:13.746Z,1.55
2022-10-06T17:16:41.657Z,1.20
2022-10-06T17:19:09.253Z,1.30
2022-10-06T17:21:57.388Z,1.48
2022-10-06T17:24:25.069Z,1.30
2022-10-06T17:26:51.896Z,1.40
2022-10-06T17:29:21.835Z,1.38
2022-10-06T17:31:50.166Z,1.60
2022-10-06T17:34:21.148Z,1.42
2022-10-06T17:36:50.020Z,1.95
2022-10-06T17:39:17.883Z,1.83
2022-10-06T17:41:45.006Z,1.55
2022-10-06T17:44:15.748Z,2.25
2022-10-06T17:46:43.199Z,1.50
2022-10-06T17:49:15.971Z,2.25
2022-10-06T17:51:46.411Z,1.73
2022-10-06T17:54:13.911Z,2.03
2022-10-06T17:56:43.681Z,1.90
2022-10-06T17:59:18.974Z,1.65
2022-10-06T18:01:45.782Z,1.50
2022-10-06T18:04:13.299Z,2.20
2022-10-06T18:06:42.442Z,1.55
2022-10-06T18:09:09.275Z,2.13
2022-10-06T18:11:36.187Z,2.22
2022-10-06T18:14:07.604Z,2.17
2022-10-06T18:16:36.601Z,1.90
2022-10-06T18:19:05.412Z,2.25
2022-10-06T18:21:32.272Z,2.38
2022-10-06T18:23:58.925Z,1.73
2022-10-06T18:26:25.740Z,2.03
2022-10-06T18:28:52.390Z,1.83
2022-10-06T18:31:19.382Z,2.60
2022-10-06T18:36:33.817Z,1.83
2022-10-06T18:39:02.355Z,2.35
2022-10-06T18:41:29.726Z,2.08
2022-10-06T18:43:57.179Z,1.90
2022-10-06T18:46:24.158Z,1.92
2022-10-06T18:48:51.059Z,2.35
2022-10-06T18:51:17.682Z,2.88
2022-10-06T18:53:44.788Z,2.35
2022-10-06T18:56:11.550Z,2.13
2022-10-06T18:58:38.990Z,2.80
2022-10-06T19:01:06.190Z,2.05
2022-10-06T19:03:33.200Z,2.78
2022-10-06T19:06:01.456Z,3.00
2022-10-06T19:08:34.585Z,2.70
2022-10-06T19:11:05.729Z,3.28
2022-10-06T19:13:32.353Z,4.05
2022-10-06T19:15:59.038Z,3.33
2022-10-06T19:18:33.649Z,4.38
2022-10-06T19:21:00.350Z,3.67
2022-10-06T19:23:31.865Z,4.00
2022-10-06T19:25:58.753Z,3.63
2022-10-06T19:28:28.748Z,3.58
2022-10-06T19:30:59.351Z,3.80
2022-10-06T19:33:26.279Z,3.97
2022-10-06T19:35:53.751Z,3.40
2022-10-06T19:38:21.344Z,3.20
2022-10-06T19:40:48.118Z,3.70
2022-10-06T19:43:14.765Z,2.75
2022-10-06T19:45:41.525Z,2.92
2022-10-06T19:48:08.209Z,2.25
2022-10-06T19:50:34.854Z,2.67
2022-10-06T19:53:01.467Z,2.20
2022-10-06T19:55:28.408Z,2.22
2022-10-06T19:57:55.210Z,2.83
2022-10-06T20:00:21.937Z,2.85
2022-10-06T20:02:48.710Z,2.30
2022-10-06T20:05:18.762Z,2.58
2022-10-06T20:07:48.187Z,2.03
2022-10-06T20:10:15.083Z,2.90
2022-10-06T20:12:41.834Z,2.90
2022-10-06T20:15:08.981Z,2.47
2022-10-06T20:17:35.649Z,3.75
2022-10-06T20:20:02.318Z,3.40
2022-10-06T20:22:28.921Z,3.47
2022-10-06T20:24:55.544Z,3.50
2022-10-06T20:27:22.350Z,3.13
2022-10-06T20:29:49.007Z,3.33
2022-10-06T20:32:15.608Z,3.28
2022-10-06T20:34:42.497Z,3.03
2022-10-06T20:37:09.218Z,3.38
2022-10-06T20:39:35.847Z,3.83
2022-10-06T20:42:02.625Z,5.38
2022-10-06T20:44:32.721Z,5.78
2022-10-06T20:46:59.385Z,6.32
2022-10-06T20:49:26.098Z,5.68
2022-10-06T20:52:01.782Z,5.30
2022-10-06T20:54:28.757Z,4.20
2022-10-06T20:56:55.585Z,3.63
2022-10-06T20:59:22.858Z,4.00
2022-10-06T21:01:49.641Z,3.35
2022-10-06T21:04:16.396Z,3.60
2022-10-06T21:06:53.271Z,2.72
2022-10-06T21:09:19.838Z,3.75
2022-10-06T21:11:46.908Z,3.45
2022-10-06T21:14:15.247Z,3.33
2022-10-06T21:16:43.275Z,3.25
2022-10-06T21:19:14.167Z,3.95
2022-10-06T21:21:41.439Z,3.75
2022-10-06T21:24:08.461Z,3.72
2022-10-06T21:26:35.230Z,3.38
2022-10-06T21:29:02.042Z,3.38
2022-10-06T21:31:28.922Z,3.42
2022-10-06T21:33:55.742Z,2.80
2022-10-06T21:36:24.046Z,3.28
2022-10-06T21:38:55.122Z,3.53
2022-10-06T21:41:26.060Z,3.03
2022-10-06T21:43:53.999Z,3.15
2022-10-06T21:46:28.375Z,3.17
2022-10-06T21:48:56.831Z,3.38
2022-10-06T21:51:26.195Z,3.42
